Aeroporto :
LOGIN :

Iscrizione | Disclaimer

   EN    FR    IT 

 










Sommario :    VFR   VFR Marginale   IFR   IFR Intensivo   IFR Molto Intensivo
Visibilità : 
Base nubi : 
>= 8 km
>= 3000ft
5 / 8 km
1000 / 3000 ft
1500m / 5 km
500 / 1000 ft
800 / 1500m
200 / 500 ft
< 800m
< 200 ft
Simboli :   Temporali  Nebbia  Neve Forte  Precipitazioni Forti  Vento > 20 kt
SIGMETs :   Varie  Temporali  Ghiacco  Turbolenza  Onda orograficha  Ceneri Vulcaniche






- Altitudine del aeroporto : 124 ft
- Codice IATA : RNS


LFRN - Rennes

ULTIMO METAR :
  • 220730Z AUTO 15010KT 9999 RA BKN028/// BKN038/// BKN047/// ///TCU 08/07 Q0996 TEMPO BKN009 BECMG 14015G25KT NSW

METARs OBSOLETI :
  • 220700Z AUTO 15012KT 9999 -RA FEW021 BKN035 BKN052 08/07 Q0996 TEMPO 4000 SHRA BKN007 BKN015TCU
  • 220630Z AUTO 14012KT 9999 RA FEW032 SCT046 BKN060 08/06 Q0996 TEMPO 4000 SHRA BKN007 BKN015TCU
  • 220600Z AUTO 14012KT CAVOK 08/06 Q0996 TEMPO 4000 SHRA BKN007 BKN015TCU
  • 220530Z AUTO 14012KT CAVOK 07/06 Q0997 TEMPO 4000 SHRA BKN007 BKN015TCU
  • 220500Z AUTO 14010KT 120V180 9999 FEW045/// SCT058/// BKN110/// ///TCU 07/06 Q0997 TEMPO 4000 SHRA BKN007 BKN015TCU

TAF TAF LFRN
Valido dal 22 a 06 ore il 23 a 06 ore UTC


220500Z 2206/2306 14010KT 9999 SCT030
TEMPO 2206/2208 4000 SHRA BKN007 BKN015TCU
PROB30
TEMPO 2208/2211 BKN009
BECMG 2209/2211 14015G25KT
TEMPO 2215/2218 5000 RA
BECMG 2216/2218 BKN012
TEMPO 2218/2224 3000 RA BKN005
BECMG 2222/2224 13010KT
TEMPO 2300/2306 3000 RADZ BKN002
ATIS : +33 2 99 67 72 50



MetMap, La meteo Aeronautica in un colpo d'occhio ! - Copyright ORBIFLY Dicembre 2007 - Disclaimer

ORBIFLY MET'MAP TEAM :

Programmazione e sviluppo : Alexandra Zaïnal
Concezione e sviluppo : Baudouin d'Aumeries
Co-Programmazione e sviluppo : Marc-Olivier Méhu
Supporto tecnico e logistico : Manuel Goepfert
Aiuto per la traduzione : Arnaldo La Scala

Contatto : metmap@orbifly.com




FONTI E CREDITI :

   NOAA